createdAt,value
2017-10-16T00:01:10.526Z,2.70
2017-10-16T00:03:36.726Z,2.60
2017-10-16T00:06:02.809Z,3.03
2017-10-16T00:08:29.687Z,2.70
2017-10-16T00:10:55.880Z,3.00
2017-10-16T00:13:22.764Z,2.73
2017-10-16T00:15:48.916Z,2.70
2017-10-16T00:18:15.117Z,2.63
2017-10-16T00:20:41.248Z,3.07
2017-10-16T00:23:07.393Z,2.87
2017-10-16T00:25:33.529Z,2.93
2017-10-16T00:27:59.795Z,2.97
2017-10-16T00:30:26.669Z,2.80
2017-10-16T00:32:52.849Z,2.77
2017-10-16T00:35:19.697Z,3.30
2017-10-16T00:37:46.714Z,3.10
2017-10-16T00:40:12.864Z,2.43
2017-10-16T00:42:39.781Z,2.77
2017-10-16T00:45:05.981Z,3.40
2017-10-16T00:47:32.330Z,2.40
2017-10-16T00:49:58.497Z,2.40
2017-10-16T00:52:25.413Z,2.90
2017-10-16T00:54:51.598Z,3.33
2017-10-16T00:57:17.808Z,3.53
2017-10-16T00:59:44.015Z,2.90
2017-10-16T01:02:10.167Z,2.53
2017-10-16T01:04:36.351Z,2.90
2017-10-16T01:07:02.589Z,3.13
2017-10-16T01:09:29.588Z,2.90
2017-10-16T01:11:55.741Z,2.67
2017-10-16T01:14:21.923Z,2.73
2017-10-16T01:16:48.483Z,2.90
2017-10-16T01:19:14.732Z,2.63
2017-10-16T01:21:41.717Z,2.40
2017-10-16T01:24:07.978Z,2.53
2017-10-16T01:26:34.132Z,2.63
2017-10-16T01:29:01.441Z,2.83
2017-10-16T01:31:27.559Z,3.17
2017-10-16T01:33:53.755Z,2.93
2017-10-16T01:36:20.813Z,2.90
2017-10-16T01:38:47.102Z,3.07
2017-10-16T01:41:13.331Z,2.27
2017-10-16T01:43:39.535Z,2.50
2017-10-16T01:46:05.871Z,2.70
2017-10-16T01:48:32.117Z,2.20
2017-10-16T01:50:58.272Z,2.43
2017-10-16T01:53:24.493Z,2.60
2017-10-16T01:55:50.740Z,2.30
2017-10-16T01:58:16.995Z,2.17
2017-10-16T02:00:43.208Z,2.53
2017-10-16T02:03:09.403Z,2.43
2017-10-16T02:05:35.643Z,2.60
2017-10-16T02:08:01.898Z,2.20
2017-10-16T02:10:28.129Z,2.33
2017-10-16T02:12:54.394Z,2.33
2017-10-16T02:15:20.604Z,2.50
2017-10-16T02:17:46.708Z,2.37
2017-10-16T02:20:12.950Z,2.77
2017-10-16T02:22:39.103Z,2.53
2017-10-16T02:25:05.283Z,2.67
2017-10-16T02:27:31.514Z,2.60
2017-10-16T02:29:57.713Z,2.30
2017-10-16T02:32:23.856Z,2.50
2017-10-16T02:34:50.047Z,2.50
2017-10-16T02:37:16.296Z,2.00
2017-10-16T02:39:42.438Z,2.60
2017-10-16T02:42:08.617Z,2.93
2017-10-16T02:44:34.839Z,2.40
2017-10-16T02:47:01.864Z,2.90
2017-10-16T02:49:28.011Z,2.70
2017-10-16T02:51:55.010Z,2.47
2017-10-16T02:54:21.176Z,3.03
2017-10-16T02:56:48.059Z,2.87
2017-10-16T02:59:14.277Z,2.80
2017-10-16T03:01:40.445Z,3.20
2017-10-16T03:04:06.617Z,2.67
2017-10-16T03:06:32.810Z,3.00
2017-10-16T03:08:58.970Z,2.67
2017-10-16T03:11:25.101Z,3.70
2017-10-16T03:13:51.400Z,2.90
2017-10-16T03:16:18.590Z,2.77
2017-10-16T03:18:44.820Z,3.20
2017-10-16T03:21:10.982Z,3.07
2017-10-16T03:23:37.250Z,3.23
2017-10-16T03:26:03.459Z,3.40
2017-10-16T03:28:30.345Z,2.80
2017-10-16T03:30:56.516Z,4.03
2017-10-16T03:33:23.501Z,3.43
2017-10-16T03:35:49.696Z,3.70
2017-10-16T03:38:15.946Z,3.40
2017-10-16T03:40:42.090Z,3.70
2017-10-16T03:43:08.311Z,3.77
2017-10-16T03:45:34.549Z,3.40
2017-10-16T03:48:00.692Z,3.00
2017-10-16T03:50:26.851Z,3.77
2017-10-16T03:52:53.837Z,3.97
2017-10-16T03:55:20.019Z,3.37
2017-10-16T03:57:46.276Z,3.97
2017-10-16T04:00:12.580Z,4.40
2017-10-16T04:02:39.502Z,5.03
2017-10-16T04:05:05.683Z,4.60
2017-10-16T04:07:31.966Z,4.80
2017-10-16T04:09:58.915Z,5.20
2017-10-16T04:12:25.794Z,4.83
2017-10-16T04:14:52.068Z,4.93
2017-10-16T04:17:18.253Z,4.27
2017-10-16T04:19:44.429Z,5.20
2017-10-16T04:22:10.658Z,5.20
2017-10-16T04:24:36.873Z,4.40
2017-10-16T04:27:03.122Z,5.27
2017-10-16T04:29:30.025Z,5.90
2017-10-16T04:31:56.955Z,5.33
2017-10-16T04:34:23.190Z,6.20
2017-10-16T04:36:49.388Z,6.70
2017-10-16T04:39:15.628Z,6.10
2017-10-16T04:41:41.755Z,5.80
2017-10-16T04:44:08.006Z,5.90
2017-10-16T04:46:34.210Z,5.60
2017-10-16T04:49:00.447Z,6.43
2017-10-16T04:51:26.707Z,6.13
2017-10-16T04:53:54.031Z,6.30
2017-10-16T04:56:20.409Z,6.90
2017-10-16T04:58:47.383Z,5.80
2017-10-16T05:01:13.533Z,6.20
2017-10-16T05:03:39.714Z,7.60
2017-10-16T05:06:06.743Z,6.50
2017-10-16T05:08:33.662Z,7.50
2017-10-16T05:10:59.829Z,7.03
2017-10-16T05:13:26.844Z,6.60
2017-10-16T05:15:53.023Z,7.47
2017-10-16T05:18:19.159Z,6.33
2017-10-16T05:20:45.346Z,7.13
2017-10-16T05:23:12.573Z,7.63
2017-10-16T05:25:38.690Z,7.50
2017-10-16T05:28:04.895Z,9.13
2017-10-16T05:30:31.027Z,9.43
2017-10-16T05:32:57.192Z,8.03
2017-10-16T05:35:24.089Z,8.77
2017-10-16T05:37:50.238Z,7.70
2017-10-16T05:40:16.517Z,7.93
2017-10-16T05:42:42.659Z,7.37
2017-10-16T05:45:08.753Z,8.13
2017-10-16T05:47:35.089Z,7.50
2017-10-16T05:50:01.338Z,8.07
2017-10-16T05:52:27.448Z,9.10
2017-10-16T05:54:53.579Z,9.70
2017-10-16T05:57:19.882Z,9.37
2017-10-16T05:59:46.833Z,8.80
2017-10-16T06:02:12.992Z,8.07
2017-10-16T06:04:39.332Z,8.67
2017-10-16T06:07:05.489Z,8.00
2017-10-16T06:09:32.423Z,7.77
2017-10-16T06:11:58.614Z,7.90
2017-10-16T06:14:24.725Z,7.70
2017-10-16T06:16:51.442Z,7.43
2017-10-16T06:19:17.637Z,9.20
2017-10-16T06:21:43.712Z,11.37
2017-10-16T06:24:09.869Z,12.07
2017-10-16T06:26:36.107Z,11.73
2017-10-16T06:29:02.260Z,11.17
2017-10-16T06:31:29.124Z,11.17
2017-10-16T06:33:55.491Z,11.13
2017-10-16T06:36:21.693Z,13.47
2017-10-16T06:38:47.881Z,12.27
2017-10-16T06:41:14.021Z,11.67
2017-10-16T06:43:40.233Z,11.20
2017-10-16T06:46:07.090Z,12.13
2017-10-16T06:48:33.253Z,12.33
2017-10-16T06:50:59.425Z,13.30
2017-10-16T06:53:26.419Z,13.83
2017-10-16T06:55:52.586Z,13.50
2017-10-16T06:58:19.581Z,12.30
2017-10-16T07:00:45.724Z,13.70
2017-10-16T07:03:11.905Z,12.43
2017-10-16T07:05:38.141Z,13.13
2017-10-16T07:08:04.330Z,9.10
2017-10-16T07:10:31.282Z,7.83
2017-10-16T07:12:58.316Z,8.13
2017-10-16T07:15:24.543Z,7.80
2017-10-16T07:17:51.458Z,7.70
2017-10-16T07:20:17.666Z,7.80
2017-10-16T07:22:43.764Z,8.10
2017-10-16T07:25:10.639Z,7.80
2017-10-16T07:27:36.722Z,8.20
2017-10-16T07:30:03.674Z,8.77
2017-10-16T07:32:30.508Z,8.70
2017-10-16T07:34:57.360Z,8.50
2017-10-16T07:37:24.383Z,8.87
2017-10-16T07:39:51.225Z,8.43
2017-10-16T07:42:18.070Z,8.60
2017-10-16T07:44:44.977Z,8.03
2017-10-16T07:47:11.172Z,8.30
2017-10-16T07:49:37.279Z,8.50
2017-10-16T07:52:03.500Z,8.77
2017-10-16T07:54:29.605Z,9.07
2017-10-16T07:56:56.479Z,8.63
2017-10-16T07:59:22.669Z,7.83
2017-10-16T08:01:48.774Z,8.33
2017-10-16T08:04:14.961Z,7.30
2017-10-16T08:06:41.124Z,8.17
2017-10-16T08:09:07.253Z,7.17
2017-10-16T08:11:33.454Z,8.20
2017-10-16T08:13:59.690Z,7.50
2017-10-16T08:16:25.915Z,6.97
2017-10-16T08:18:52.028Z,7.47
2017-10-16T08:21:18.140Z,6.37
2017-10-16T08:23:44.337Z,7.43
2017-10-16T08:26:11.195Z,7.40
2017-10-16T08:28:38.282Z,7.37
2017-10-16T08:31:04.408Z,6.40
2017-10-16T08:33:30.530Z,5.90
2017-10-16T08:35:56.685Z,6.87
2017-10-16T08:38:22.811Z,6.60
2017-10-16T08:40:48.994Z,7.17
2017-10-16T08:43:15.474Z,6.70
2017-10-16T08:45:41.710Z,6.40
2017-10-16T08:48:07.895Z,7.00
2017-10-16T08:50:34.080Z,5.87
2017-10-16T08:53:00.947Z,6.20
2017-10-16T08:55:27.129Z,5.80
2017-10-16T08:57:54.116Z,6.10
2017-10-16T09:00:20.326Z,5.50
2017-10-16T09:02:46.448Z,6.07
2017-10-16T09:05:12.575Z,5.83
2017-10-16T09:07:38.746Z,5.63
2017-10-16T09:10:04.979Z,5.77
2017-10-16T09:12:31.136Z,5.60
2017-10-16T09:14:58.053Z,5.50
2017-10-16T09:17:24.258Z,5.63
2017-10-16T09:19:50.389Z,5.10
2017-10-16T09:22:16.647Z,5.23
2017-10-16T09:24:42.968Z,5.90
2017-10-16T09:27:09.137Z,6.17
2017-10-16T09:29:37.036Z,5.80
2017-10-16T09:32:03.373Z,5.27
2017-10-16T09:34:29.466Z,5.10
2017-10-16T09:36:55.746Z,5.13
2017-10-16T09:39:21.835Z,4.63
2017-10-16T09:41:48.086Z,4.80
2017-10-16T09:44:14.340Z,4.70
2017-10-16T09:46:41.212Z,5.53
2017-10-16T09:49:07.504Z,5.97
2017-10-16T09:51:33.605Z,5.23
2017-10-16T09:53:59.845Z,5.10
2017-10-16T09:56:26.061Z,4.47
2017-10-16T09:58:52.130Z,4.80
2017-10-16T10:01:19.035Z,5.40
2017-10-16T10:03:45.198Z,5.13
2017-10-16T10:06:11.437Z,4.83
2017-10-16T10:08:37.670Z,4.83
2017-10-16T10:11:03.929Z,4.80
2017-10-16T10:13:30.168Z,4.50
2017-10-16T10:15:56.410Z,4.93
2017-10-16T10:18:22.891Z,4.50
2017-10-16T10:20:49.249Z,4.80
2017-10-16T10:23:15.515Z,4.43
2017-10-16T10:25:42.436Z,4.20
2017-10-16T10:28:08.645Z,5.20
2017-10-16T10:30:34.972Z,5.13
2017-10-16T10:33:01.105Z,4.20
2017-10-16T10:35:27.213Z,5.23
2017-10-16T10:37:53.447Z,4.80
2017-10-16T10:40:19.591Z,5.37
2017-10-16T10:42:46.444Z,5.23
2017-10-16T10:45:12.658Z,5.07
2017-10-16T10:47:39.096Z,4.70
2017-10-16T10:50:05.542Z,4.90
2017-10-16T10:52:31.872Z,5.50
2017-10-16T10:54:58.003Z,4.50
2017-10-16T10:57:24.951Z,4.93
2017-10-16T10:59:51.842Z,5.13
2017-10-16T11:02:18.065Z,4.83
2017-10-16T11:04:44.166Z,4.90
2017-10-16T11:07:10.323Z,5.10
2017-10-16T11:09:36.424Z,4.67
2017-10-16T11:12:02.677Z,5.00
2017-10-16T11:14:28.794Z,4.90
2017-10-16T11:16:55.055Z,5.00
2017-10-16T11:19:21.289Z,5.10
2017-10-16T11:21:47.411Z,4.70
2017-10-16T11:24:13.523Z,4.87
2017-10-16T11:26:39.698Z,5.10
2017-10-16T11:29:05.819Z,4.57
2017-10-16T11:31:31.967Z,5.23
2017-10-16T11:33:58.213Z,4.97
2017-10-16T11:36:24.355Z,5.13
2017-10-16T11:38:50.620Z,4.43
2017-10-16T11:41:16.796Z,4.90
2017-10-16T11:43:43.008Z,5.17
2017-10-16T11:46:09.257Z,5.10
2017-10-16T11:48:35.358Z,5.53
2017-10-16T11:51:01.547Z,5.10
2017-10-16T11:53:28.485Z,4.87
2017-10-16T11:55:55.369Z,4.63
2017-10-16T11:58:21.648Z,5.10
2017-10-16T12:00:47.757Z,4.83
2017-10-16T12:03:13.959Z,5.87
2017-10-16T12:05:40.184Z,5.37
2017-10-16T12:08:06.362Z,5.87
2017-10-16T12:10:33.187Z,5.20
2017-10-16T12:12:59.363Z,5.30
2017-10-16T12:15:25.440Z,5.20
2017-10-16T12:17:51.519Z,7.70
2017-10-16T12:20:17.679Z,5.90
2017-10-16T12:22:44.513Z,5.87
2017-10-16T12:25:10.621Z,4.90
2017-10-16T12:27:36.746Z,5.00
2017-10-16T12:30:02.940Z,5.70
2017-10-16T12:32:29.079Z,5.00
2017-10-16T12:34:55.252Z,5.83
2017-10-16T12:37:21.510Z,5.70
2017-10-16T12:39:48.478Z,4.93
2017-10-16T12:42:14.650Z,5.20
2017-10-16T12:44:40.869Z,5.60
2017-10-16T12:47:07.031Z,5.07
2017-10-16T12:49:33.992Z,5.23
2017-10-16T12:52:00.182Z,5.60
2017-10-16T12:54:26.359Z,5.50
2017-10-16T12:56:52.528Z,5.60
2017-10-16T12:59:18.731Z,5.60
2017-10-16T13:01:44.942Z,4.80
2017-10-16T13:04:14.199Z,8.03
2017-10-16T13:06:41.163Z,5.47
2017-10-16T13:09:07.329Z,5.60
2017-10-16T13:11:33.500Z,14.40
2017-10-16T13:14:00.340Z,17.73
2017-10-16T13:16:27.294Z,8.20
2017-10-16T13:18:54.175Z,5.53
2017-10-16T13:21:20.291Z,5.30
2017-10-16T13:23:46.458Z,5.70
2017-10-16T13:26:12.596Z,5.07
2017-10-16T13:28:38.800Z,5.40
2017-10-16T13:31:04.981Z,5.30
2017-10-16T13:33:31.226Z,6.17
2017-10-16T13:35:57.377Z,5.73
2017-10-16T13:38:23.483Z,6.13
2017-10-16T13:40:49.646Z,5.40
2017-10-16T13:43:15.786Z,5.80
2017-10-16T13:45:42.781Z,15.53
2017-10-16T13:48:08.908Z,9.73
2017-10-16T13:50:35.139Z,5.93
2017-10-16T13:53:01.361Z,5.80
2017-10-16T13:55:27.531Z,5.53
2017-10-16T13:57:53.804Z,4.73
2017-10-16T14:00:19.933Z,5.20
2017-10-16T14:02:46.989Z,8.43
2017-10-16T14:05:13.131Z,8.53
2017-10-16T14:07:39.326Z,5.47
2017-10-16T14:10:05.500Z,5.53
2017-10-16T14:12:31.617Z,5.73
2017-10-16T14:14:57.870Z,5.10
2017-10-16T14:17:24.830Z,5.37
2017-10-16T14:19:51.687Z,5.97
2017-10-16T14:22:17.843Z,5.80
2017-10-16T14:24:44.076Z,4.63
2017-10-16T14:27:10.231Z,5.43
2017-10-16T14:29:37.239Z,6.00
2017-10-16T14:32:03.396Z,4.93
2017-10-16T14:34:31.124Z,6.03
2017-10-16T14:36:57.352Z,5.27
2017-10-16T14:39:23.626Z,4.67
2017-10-16T14:41:50.562Z,4.77
2017-10-16T14:44:16.695Z,5.83
2017-10-16T14:46:43.541Z,5.67
2017-10-16T14:49:10.448Z,5.30
2017-10-16T14:51:36.680Z,4.70
2017-10-16T14:54:02.902Z,5.60
2017-10-16T14:56:29.200Z,4.60
2017-10-16T14:58:55.409Z,5.53
2017-10-16T15:01:21.628Z,5.33
2017-10-16T15:03:48.511Z,5.30
2017-10-16T15:06:14.781Z,5.00
2017-10-16T15:08:41.734Z,5.20
2017-10-16T15:11:08.641Z,5.83
2017-10-16T15:13:34.873Z,5.17
2017-10-16T15:16:01.061Z,5.77
2017-10-16T15:18:27.167Z,5.83
2017-10-16T15:20:54.093Z,5.20
2017-10-16T15:23:20.263Z,6.60
2017-10-16T15:25:46.424Z,5.47
2017-10-16T15:28:12.572Z,5.43
2017-10-16T15:30:39.560Z,6.03
2017-10-16T15:33:05.706Z,6.17
2017-10-16T15:35:31.942Z,6.63
2017-10-16T15:37:58.211Z,5.40
2017-10-16T15:40:25.063Z,6.90
2017-10-16T15:42:51.282Z,6.13
2017-10-16T15:45:18.364Z,5.67
2017-10-16T15:47:44.566Z,5.90
2017-10-16T15:50:11.036Z,6.30
2017-10-16T15:52:37.390Z,5.60
2017-10-16T15:55:03.767Z,5.50
2017-10-16T15:57:29.948Z,6.40
2017-10-16T15:59:56.057Z,6.50
2017-10-16T16:02:22.240Z,5.63
2017-10-16T16:04:48.575Z,6.93
2017-10-16T16:07:14.860Z,6.80
2017-10-16T16:09:41.082Z,6.30
2017-10-16T16:12:07.306Z,6.80
2017-10-16T16:14:33.558Z,6.40
2017-10-16T16:17:00.559Z,6.23
2017-10-16T16:19:26.792Z,6.77
2017-10-16T16:21:53.120Z,6.30
2017-10-16T16:24:19.415Z,7.50
2017-10-16T16:26:45.535Z,6.00
2017-10-16T16:29:11.936Z,6.30
2017-10-16T16:31:38.251Z,6.40
2017-10-16T16:34:04.697Z,6.20
2017-10-16T16:36:30.777Z,7.30
2017-10-16T16:38:57.018Z,5.87
2017-10-16T16:41:23.256Z,7.43
2017-10-16T16:43:49.453Z,6.60
2017-10-16T16:46:15.709Z,7.30
2017-10-16T16:48:41.875Z,6.40
2017-10-16T16:51:08.993Z,5.80
2017-10-16T16:53:35.253Z,6.67
2017-10-16T16:56:02.203Z,6.33
2017-10-16T16:58:30.084Z,6.33
2017-10-16T17:00:56.258Z,6.70
2017-10-16T17:03:22.457Z,6.20
2017-10-16T17:05:48.840Z,6.23
2017-10-16T17:08:15.728Z,6.47
2017-10-16T17:10:42.038Z,6.03
2017-10-16T17:13:08.286Z,6.90
2017-10-16T17:15:34.460Z,6.30
2017-10-16T17:18:00.647Z,7.13
2017-10-16T17:20:27.094Z,6.33
2017-10-16T17:22:53.357Z,6.30
2017-10-16T17:25:20.271Z,7.13
2017-10-16T17:27:46.773Z,6.60
2017-10-16T17:30:12.990Z,5.80
2017-10-16T17:32:39.283Z,7.00
2017-10-16T17:35:05.660Z,6.30
2017-10-16T17:37:31.983Z,6.73
2017-10-16T17:39:58.323Z,6.60
2017-10-16T17:42:24.601Z,7.10
2017-10-16T17:44:51.605Z,6.20
2017-10-16T17:47:17.727Z,7.10
2017-10-16T17:49:43.904Z,6.40
2017-10-16T17:52:10.888Z,6.73
2017-10-16T17:54:37.659Z,6.10
2017-10-16T17:57:04.103Z,6.30
2017-10-16T17:59:30.453Z,7.23
2017-10-16T18:01:57.302Z,7.40
2017-10-16T18:04:24.303Z,8.57
2017-10-16T18:06:50.543Z,6.77
2017-10-16T18:09:16.720Z,8.23
2017-10-16T18:11:43.038Z,9.57
2017-10-16T18:14:09.239Z,9.90
2017-10-16T18:16:35.437Z,7.40
2017-10-16T18:19:01.709Z,7.67
2017-10-16T18:21:28.867Z,7.20
2017-10-16T18:23:55.406Z,7.10
2017-10-16T18:26:22.371Z,6.90
2017-10-16T18:28:48.694Z,6.70
2017-10-16T18:31:15.564Z,6.10
2017-10-16T18:33:41.984Z,6.20
2017-10-16T18:36:08.462Z,7.13
2017-10-16T18:38:34.564Z,6.57
2017-10-16T18:41:00.954Z,6.60
2017-10-16T18:43:27.113Z,6.73
2017-10-16T18:45:53.310Z,6.53
2017-10-16T18:48:19.696Z,7.03
2017-10-16T18:50:45.749Z,6.20
2017-10-16T18:53:12.042Z,6.47
2017-10-16T18:55:38.234Z,6.30
2017-10-16T18:58:04.467Z,6.77
2017-10-16T19:00:30.685Z,6.40
2017-10-16T19:02:56.903Z,6.33
2017-10-16T19:05:23.111Z,6.00
2017-10-16T19:07:50.139Z,6.53
2017-10-16T19:10:16.354Z,6.00
2017-10-16T19:12:43.327Z,6.63
2017-10-16T19:15:09.579Z,6.90
2017-10-16T19:17:35.827Z,7.00
2017-10-16T19:20:02.028Z,6.10
2017-10-16T19:22:28.305Z,7.17
2017-10-16T19:24:54.507Z,6.73
2017-10-16T19:27:20.845Z,6.83
2017-10-16T19:29:47.043Z,6.60
2017-10-16T19:32:13.289Z,5.80
2017-10-16T19:34:39.554Z,6.70
2017-10-16T19:37:05.860Z,7.10
2017-10-16T19:39:32.055Z,6.70
2017-10-16T19:41:58.235Z,6.40
2017-10-16T19:44:24.369Z,6.10
2017-10-16T19:46:51.382Z,5.60
2017-10-16T19:49:17.822Z,6.97
2017-10-16T19:51:44.189Z,6.70
2017-10-16T19:54:10.419Z,6.07
2017-10-16T19:56:37.329Z,8.00
2017-10-16T19:59:03.478Z,7.20
2017-10-16T20:01:30.409Z,6.00
2017-10-16T20:03:56.548Z,6.97
2017-10-16T20:06:23.899Z,6.80
2017-10-16T20:08:50.890Z,7.13
2017-10-16T20:11:17.112Z,6.70
2017-10-16T20:13:43.337Z,6.30
2017-10-16T20:16:09.788Z,6.90
2017-10-16T20:18:35.965Z,7.03
2017-10-16T20:21:02.857Z,6.47
2017-10-16T20:23:29.869Z,6.93
2017-10-16T20:25:56.071Z,7.07
2017-10-16T20:28:23.019Z,6.50
2017-10-16T20:30:50.078Z,7.37
2017-10-16T20:33:16.367Z,6.83
2017-10-16T20:35:42.626Z,7.17
2017-10-16T20:38:08.897Z,7.17
2017-10-16T20:40:35.082Z,6.60
2017-10-16T20:43:02.061Z,7.10
2017-10-16T20:45:28.380Z,6.63
2017-10-16T20:47:54.892Z,6.87
2017-10-16T20:50:22.248Z,7.37
2017-10-16T20:52:49.449Z,6.80
2017-10-16T20:55:15.674Z,7.30
2017-10-16T20:57:41.995Z,7.50
2017-10-16T21:00:08.254Z,6.73
2017-10-16T21:02:34.478Z,6.60
2017-10-16T21:05:00.732Z,7.70
2017-10-16T21:07:27.030Z,6.87
2017-10-16T21:09:53.229Z,6.53
2017-10-16T21:12:19.492Z,6.33
2017-10-16T21:14:45.697Z,7.53
2017-10-16T21:17:11.818Z,7.37
2017-10-16T21:19:37.991Z,6.80
2017-10-16T21:22:04.952Z,6.73
2017-10-16T21:24:31.154Z,6.57
2017-10-16T21:26:58.000Z,7.23
2017-10-16T21:29:25.048Z,6.10
2017-10-16T21:31:51.257Z,6.30
2017-10-16T21:34:18.154Z,7.57
2017-10-16T21:36:44.302Z,6.37
2017-10-16T21:39:10.836Z,7.37
2017-10-16T21:41:37.176Z,6.80
2017-10-16T21:44:03.309Z,6.33
2017-10-16T21:46:29.489Z,6.13
2017-10-16T21:48:55.658Z,7.33
2017-10-16T21:51:21.909Z,7.23
2017-10-16T21:53:48.793Z,6.37
2017-10-16T21:56:14.932Z,6.80
2017-10-16T21:58:41.106Z,6.10
2017-10-16T22:01:08.009Z,6.50
2017-10-16T22:03:34.203Z,7.87
2017-10-16T22:06:00.440Z,5.77
2017-10-16T22:08:26.697Z,5.80
2017-10-16T22:10:52.923Z,6.40
2017-10-16T22:13:19.055Z,6.20
2017-10-16T22:15:45.224Z,5.90
2017-10-16T22:18:11.368Z,6.37
2017-10-16T22:20:37.702Z,6.70
2017-10-16T22:23:03.987Z,6.23
2017-10-16T22:25:30.946Z,7.10
2017-10-16T22:27:57.043Z,6.33
2017-10-16T22:30:23.204Z,6.33
2017-10-16T22:32:49.277Z,6.70
2017-10-16T22:35:15.440Z,6.43
2017-10-16T22:37:42.271Z,6.43
2017-10-16T22:40:09.163Z,7.10
2017-10-16T22:42:35.318Z,6.83
2017-10-16T22:45:01.501Z,6.47
2017-10-16T22:47:30.383Z,6.07
2017-10-16T22:49:56.570Z,5.80
2017-10-16T22:52:23.493Z,7.00
2017-10-16T22:54:49.716Z,6.27
2017-10-16T22:57:15.959Z,5.97
2017-10-16T22:59:42.200Z,6.40
2017-10-16T23:02:09.247Z,6.33
2017-10-16T23:04:36.247Z,5.40
2017-10-16T23:07:02.339Z,5.77
2017-10-16T23:09:28.437Z,6.00
2017-10-16T23:11:55.319Z,6.50
2017-10-16T23:14:21.475Z,5.77
2017-10-16T23:16:47.926Z,5.97
2017-10-16T23:19:14.131Z,5.63
2017-10-16T23:21:40.327Z,6.10
2017-10-16T23:24:06.490Z,5.43
2017-10-16T23:26:32.572Z,6.40
2017-10-16T23:28:58.739Z,5.80
2017-10-16T23:31:24.915Z,6.30
2017-10-16T23:33:51.066Z,6.20
2017-10-16T23:36:17.195Z,5.93
2017-10-16T23:38:43.328Z,6.40
2017-10-16T23:41:09.415Z,6.47
2017-10-16T23:43:35.638Z,5.80
2017-10-16T23:46:01.840Z,5.60
2017-10-16T23:48:28.086Z,6.00
2017-10-16T23:50:54.962Z,6.03
2017-10-16T23:53:21.207Z,5.23
2017-10-16T23:55:47.475Z,5.80
2017-10-16T23:58:14.418Z,5.83
